Ashland, Louisiana
Current Conditions -  °F | °C
As of 6:55 AM on Friday 19 Dec 2014 (Local Time) from KIER Reporting Station
Moderate Rain Moderate Rain  
Wind Chill:   Ceiling: 1700
Heat Index: 10°   Visibility: 4mi
Dew Point:   Wind: 8mph
Humidity: 99%   Direction: 80°E
Pressure: 30.11"   Gusts: NA
Location:  32.14°N, 93.1°W
Report Text: KIER 191255Z AUTO 08007KT 4SM RA SCT004 BKN017 OVC060 10/09 A3011 RMK AO2 LTG DSNT SW T00960094
Loading
Personal Weather Stations






























Interactive Weather Map New forecast layout! Learn more

10-Day Weather Forecast

Advertisements
Track Severe Weather on mobile